createdAt,value
2022-10-05T00:04:10.820Z,19.44
2022-10-05T00:09:55.313Z,19.43
2022-10-05T00:15:38.706Z,19.41
2022-10-05T00:21:23.294Z,19.39
2022-10-05T00:27:11.839Z,19.38
2022-10-05T00:32:59.417Z,19.36
2022-10-05T00:38:43.207Z,19.37
2022-10-05T00:44:31.722Z,19.38
2022-10-05T00:50:26.175Z,19.34
2022-10-05T00:56:14.312Z,19.34
2022-10-05T01:02:00.624Z,19.32
2022-10-05T01:07:46.731Z,19.3
2022-10-05T01:13:34.138Z,19.27
2022-10-05T01:19:25.262Z,19.27
2022-10-05T01:25:17.153Z,19.25
2022-10-05T01:31:05.933Z,19.26
2022-10-05T01:36:55.651Z,19.28
2022-10-05T01:42:46.044Z,19.28
2022-10-05T01:48:34.977Z,19.26
2022-10-05T01:54:24.713Z,19.24
2022-10-05T02:00:09.374Z,19.21
2022-10-05T02:05:56.902Z,19.22
2022-10-05T02:11:42.356Z,19.21
2022-10-05T02:17:27.771Z,19.18
2022-10-05T02:23:14.163Z,19.16
2022-10-05T02:28:59.180Z,19.14
2022-10-05T02:34:43.283Z,19.12
2022-10-05T02:40:32.288Z,19.09
2022-10-05T02:46:19.266Z,19.1
2022-10-05T02:52:06.334Z,19.08
2022-10-05T02:57:54.268Z,19.08
2022-10-05T03:03:40.218Z,19.09
2022-10-05T03:09:27.202Z,19.08
2022-10-05T03:15:15.890Z,19.07
2022-10-05T03:21:04.663Z,19.06
2022-10-05T03:26:53.085Z,19.06
2022-10-05T03:32:41.543Z,19.1
2022-10-05T03:38:30.171Z,19.1
2022-10-05T03:44:24.626Z,19.08
2022-10-05T03:50:19.020Z,19.09
2022-10-05T03:56:06.174Z,19.1
2022-10-05T04:01:51.776Z,19.08
2022-10-05T04:07:39.537Z,19.1
2022-10-05T04:13:25.912Z,19.09
2022-10-05T04:19:12.911Z,19.07
2022-10-05T04:24:59.690Z,19.07
2022-10-05T04:30:46.174Z,19.07
2022-10-05T04:36:33.260Z,19.07
2022-10-05T04:42:21.515Z,19.06
2022-10-05T04:48:19.956Z,19.07
2022-10-05T04:54:08.790Z,19.11
2022-10-05T05:00:00.458Z,19.09
2022-10-05T05:06:12.420Z,19.1
2022-10-05T05:11:57.337Z,19.12
2022-10-05T05:17:48.056Z,19.08
2022-10-05T05:23:35.295Z,19.04
2022-10-05T05:29:21.439Z,19.02
2022-10-05T05:35:12.691Z,19.02
2022-10-05T05:41:00.298Z,19.02
2022-10-05T05:47:04.257Z,19.03
2022-10-05T05:52:49.743Z,19.11
2022-10-05T05:58:35.243Z,19.15
2022-10-05T06:04:22.301Z,19.17
2022-10-05T06:10:10.367Z,19.17
2022-10-05T06:15:55.458Z,19.19
2022-10-05T06:21:42.448Z,19.24
2022-10-05T06:27:34.594Z,19.27
2022-10-05T06:33:25.542Z,19.29
2022-10-05T06:39:28.580Z,19.32
2022-10-05T06:45:16.467Z,19.43
2022-10-05T06:51:04.376Z,19.48
2022-10-05T06:56:50.925Z,19.53
2022-10-05T07:02:38.682Z,19.61
2022-10-05T07:08:27.074Z,19.75
2022-10-05T07:14:20.467Z,19.83
2022-10-05T07:20:08.959Z,19.94
2022-10-05T07:25:57.182Z,20.06
2022-10-05T07:31:45.186Z,20.15
2022-10-05T07:37:33.162Z,20.26
2022-10-05T07:43:31.997Z,20.35
2022-10-05T07:49:34.193Z,20.51
2022-10-05T07:55:19.136Z,20.55
2022-10-05T08:01:08.152Z,20.6
2022-10-05T08:06:53.036Z,20.75
2022-10-05T08:12:41.213Z,20.87
2022-10-05T08:18:29.887Z,20.98
2022-10-05T08:24:19.379Z,21.11
2022-10-05T08:30:04.243Z,21.21
2022-10-05T08:35:51.403Z,21.32
2022-10-05T08:41:52.040Z,21.43
2022-10-05T08:47:55.166Z,21.63
2022-10-05T08:53:51.038Z,21.83
2022-10-05T08:59:48.410Z,22.04
2022-10-05T09:05:49.141Z,22.24
2022-10-05T09:11:35.795Z,22.33
2022-10-05T09:17:25.668Z,22.51
2022-10-05T09:23:13.101Z,22.63
2022-10-05T09:29:01.271Z,22.77
2022-10-05T09:35:01.414Z,22.93
2022-10-05T09:40:58.044Z,22.98
2022-10-05T09:46:52.703Z,23.19
2022-10-05T09:52:53.291Z,23.19
2022-10-05T09:58:53.483Z,23.37
2022-10-05T10:04:44.023Z,23.47
2022-10-05T10:10:38.510Z,23.6
2022-10-05T10:16:26.113Z,23.68
2022-10-05T10:22:26.631Z,23.7
2022-10-05T10:28:20.154Z,23.94
2022-10-05T10:34:09.658Z,24.18
2022-10-05T10:40:01.231Z,24.33
2022-10-05T10:45:56.581Z,24.37
2022-10-05T10:51:50.930Z,24.42
2022-10-05T10:57:40.287Z,24.48
2022-10-05T11:03:40.281Z,24.64
2022-10-05T11:09:31.530Z,24.72
2022-10-05T11:15:27.269Z,24.79
2022-10-05T11:21:25.821Z,24.97
2022-10-05T11:27:18.410Z,25.04
2022-10-05T11:33:13.239Z,25.2
2022-10-05T11:39:22.714Z,25.28
2022-10-05T11:45:23.204Z,25.33
2022-10-05T11:51:28.965Z,25.5
2022-10-05T11:57:15.563Z,25.64
2022-10-05T12:03:10.365Z,25.73
2022-10-05T12:09:00.613Z,25.95
2022-10-05T12:14:51.982Z,25.91
2022-10-05T12:20:40.192Z,25.98
2022-10-05T12:26:25.928Z,26.28
2022-10-05T12:32:15.939Z,26.33
2022-10-05T12:38:01.707Z,26.15
2022-10-05T12:43:51.916Z,26.37
2022-10-05T12:49:42.710Z,26.5
2022-10-05T12:55:29.578Z,26.71
2022-10-05T13:01:17.791Z,26.7
2022-10-05T13:07:13.020Z,26.82
2022-10-05T13:13:01.218Z,26.79
2022-10-05T13:18:51.193Z,26.64
2022-10-05T13:24:38.007Z,26.49
2022-10-05T13:30:21.445Z,26.62
2022-10-05T13:36:10.514Z,26.53
2022-10-05T13:41:58.854Z,26.62
2022-10-05T13:47:47.223Z,26.4
2022-10-05T13:53:35.628Z,26.28
2022-10-05T13:59:24.361Z,26.22
2022-10-05T14:05:14.210Z,26.08
2022-10-05T14:10:57.347Z,25.98
2022-10-05T14:16:43.903Z,25.86
2022-10-05T14:22:27.584Z,25.78
2022-10-05T14:28:16.918Z,25.71
2022-10-05T14:34:05.750Z,25.7
2022-10-05T14:39:50.259Z,25.68
2022-10-05T14:45:33.466Z,25.77
2022-10-05T14:51:21.736Z,25.5
2022-10-05T14:57:13.854Z,25.45
2022-10-05T15:03:11.302Z,25.34
2022-10-05T15:09:09.222Z,25.31
2022-10-05T15:15:02.286Z,25.47
2022-10-05T15:20:50.215Z,25.42
2022-10-05T15:26:39.032Z,25.3
2022-10-05T15:32:27.546Z,25.17
2022-10-05T15:38:14.537Z,25
2022-10-05T15:44:01.630Z,24.85
2022-10-05T15:49:54.212Z,24.79
2022-10-05T15:55:41.819Z,24.67
2022-10-05T16:01:30.067Z,24.57
2022-10-05T16:07:18.257Z,24.4
2022-10-05T16:13:08.200Z,24.29
2022-10-05T16:18:56.208Z,24.12
2022-10-05T16:24:50.172Z,24.03
2022-10-05T16:30:38.228Z,23.91
2022-10-05T16:36:26.528Z,23.84
2022-10-05T16:42:14.587Z,23.68
2022-10-05T16:48:02.439Z,23.52
2022-10-05T16:53:50.905Z,23.41
2022-10-05T16:59:47.938Z,23.31
2022-10-05T17:05:38.726Z,23.22
2022-10-05T17:11:28.193Z,23.11
2022-10-05T17:17:28.744Z,23.02
2022-10-05T17:23:24.614Z,22.96
2022-10-05T17:29:14.042Z,22.89
2022-10-05T17:35:18.620Z,22.83
2022-10-05T17:41:13.819Z,22.8
2022-10-05T17:46:58.223Z,22.74
2022-10-05T17:52:42.206Z,22.68
2022-10-05T17:58:36.901Z,22.61
2022-10-05T18:04:25.366Z,22.57
2022-10-05T18:10:26.342Z,22.53
2022-10-05T18:16:10.755Z,22.51
2022-10-05T18:22:08.260Z,22.44
2022-10-05T18:27:58.641Z,22.39
2022-10-05T18:33:54.733Z,22.34
2022-10-05T18:39:50.230Z,22.32
2022-10-05T18:45:38.812Z,22.28
2022-10-05T18:51:27.531Z,22.25
2022-10-05T18:57:21.668Z,22.2
2022-10-05T19:03:09.918Z,22.18
2022-10-05T19:08:58.305Z,22.18
2022-10-05T19:14:46.555Z,22.14
2022-10-05T19:20:31.726Z,22.1
2022-10-05T19:26:22.498Z,22.04
2022-10-05T19:32:11.010Z,22.01
2022-10-05T19:38:00.097Z,22.01
2022-10-05T19:43:49.985Z,21.97
2022-10-05T19:49:40.526Z,21.96
2022-10-05T19:55:31.576Z,21.9
2022-10-05T20:01:19.778Z,21.88
2022-10-05T20:07:03.959Z,21.85
2022-10-05T20:12:53.863Z,21.79
2022-10-05T20:18:45.691Z,21.7
2022-10-05T20:24:29.517Z,21.63
2022-10-05T20:30:13.853Z,21.58
2022-10-05T20:35:57.220Z,21.57
2022-10-05T20:41:40.511Z,21.49
2022-10-05T20:47:24.186Z,21.45
2022-10-05T20:53:11.699Z,21.39
2022-10-05T20:58:55.542Z,21.34
2022-10-05T21:04:42.007Z,21.35
2022-10-05T21:10:25.755Z,21.3
2022-10-05T21:16:09.143Z,21.23
2022-10-05T21:21:52.506Z,21.19
2022-10-05T21:27:35.820Z,21.19
2022-10-05T21:33:19.143Z,21.13
2022-10-05T21:39:02.367Z,21.1
2022-10-05T21:44:45.675Z,21.05
2022-10-05T21:50:29.007Z,21.01
2022-10-05T21:56:14.024Z,20.96
2022-10-05T22:01:57.593Z,20.89
2022-10-05T22:07:40.783Z,20.84
2022-10-05T22:13:24.883Z,20.76
2022-10-05T22:19:12.451Z,20.72
2022-10-05T22:24:55.826Z,20.68
2022-10-05T22:30:39.670Z,20.62
2022-10-05T22:36:23.003Z,20.57
2022-10-05T22:42:06.461Z,20.54
2022-10-05T22:47:49.674Z,20.47
2022-10-05T22:53:33.187Z,20.4
2022-10-05T22:59:16.491Z,20.36
2022-10-05T23:04:59.636Z,20.31
2022-10-05T23:10:42.868Z,20.27
2022-10-05T23:16:27.890Z,20.21
2022-10-05T23:22:11.946Z,20.18
2022-10-05T23:27:55.201Z,20.14
2022-10-05T23:33:38.638Z,20.11
2022-10-05T23:39:22.706Z,20.09
2022-10-05T23:45:06.409Z,20.14
2022-10-05T23:50:49.455Z,20.09
2022-10-05T23:56:32.753Z,20.04
